Time;durP1;ratioP1;P1;durP2;ratioP2;P2;SDS_P1;SDS_P2;PMS_P1;PMS_P2;Temp;Humidity;BMP_temperature;BMP_pressure;BME280_temperature;BME280_humidity;BME280_pressure;Samples;Min_cycle;Max_cycle;Signal;HPM_P1;HPM_P2
2022/07/15 00:00:13;;;;;;;5.53;3.20;;;21.30;30.30;;;;;;5022006;28;20195;-83
2022/07/15 00:02:40;;;;;;;6.88;3.20;;;21.30;30.10;;;;;;5020813;28;20276;-83
2022/07/15 00:05:08;;;;;;;3.90;3.03;;;21.40;30.00;;;;;;5026592;28;20191;-84
2022/07/15 00:07:36;;;;;;;4.65;3.20;;;21.30;30.60;;;;;;5029760;28;20217;-83
2022/07/15 00:10:14;;;;;;;4.32;3.20;;;21.40;29.80;;;;;;5022556;28;20267;-83
2022/07/15 00:12:44;;;;;;;5.53;3.03;;;21.50;30.00;;;;;;5028334;28;20564;-83
2022/07/15 00:15:13;;;;;;;6.28;3.45;;;21.60;30.10;;;;;;5019371;28;20191;-83
2022/07/15 00:17:41;;;;;;;6.00;2.97;;;21.50;31.10;;;;;;5029775;28;20558;-83
2022/07/15 00:20:24;;;;;;;4.18;3.38;;;21.40;30.20;;;;;;5034422;28;20194;-83
2022/07/15 00:22:56;;;;;;;3.80;2.90;;;21.30;32.00;;;;;;5035675;28;20313;-83
2022/07/15 00:25:23;;;;;;;3.60;3.20;;;21.20;31.20;;;;;;5028758;28;20202;-83
2022/07/15 00:27:56;;;;;;;7.03;3.45;;;21.20;31.00;;;;;;5028376;28;20195;-83
2022/07/15 00:30:23;;;;;;;8.55;3.42;;;21.20;31.00;;;;;;5033710;28;20222;-83
2022/07/15 00:32:51;;;;;;;8.25;3.40;;;21.20;31.40;;;;;;5031675;28;20230;-83
2022/07/15 00:35:19;;;;;;;4.15;3.28;;;21.20;31.80;;;;;;5033326;28;20198;-83
2022/07/15 00:37:46;;;;;;;5.13;3.35;;;21.20;33.10;;;;;;5029070;28;20207;-83
2022/07/15 00:40:13;;;;;;;4.07;3.42;;;21.30;31.10;;;;;;5026190;28;21511;-83
2022/07/15 00:42:46;;;;;;;5.07;3.53;;;21.30;33.20;;;;;;5031761;28;20206;-83
2022/07/15 00:45:15;;;;;;;7.25;3.72;;;21.10;34.40;;;;;;5033721;28;20198;-83
2022/07/15 00:47:56;;;;;;;5.90;3.95;;;20.80;39.70;;;;;;5032531;28;20199;-83
2022/07/15 00:50:28;;;;;;;7.57;3.90;;;20.60;47.60;;;;;;5039848;28;20201;-83
2022/07/15 00:52:57;;;;;;;5.45;4.00;;;20.40;51.30;;;;;;5038396;28;20217;-83
2022/07/15 00:55:25;;;;;;;6.97;4.05;;;20.40;51.40;;;;;;5036696;28;20198;-83
2022/07/15 00:57:58;;;;;;;7.72;3.30;;;20.30;56.10;;;;;;5036406;28;20199;-82
2022/07/15 01:00:33;;;;;;;7.95;3.58;;;20.10;56.10;;;;;;5029807;28;20199;-81
2022/07/15 01:03:01;;;;;;;6.35;3.50;;;20.20;55.90;;;;;;5035233;28;20210;-82
2022/07/15 01:05:30;;;;;;;8.27;4.40;;;20.20;52.30;;;;;;5037884;28;20194;-83
2022/07/15 01:07:57;;;;;;;10.35;4.47;;;20.00;57.50;;;;;;5032104;28;20206;-83
2022/07/15 01:10:25;;;;;;;7.57;4.60;;;19.70;69.40;;;;;;5035282;28;20688;-83
2022/07/15 01:12:53;;;;;;;7.70;4.57;;;19.30;75.10;;;;;;5031040;28;20207;-85
2022/07/15 01:15:20;;;;;;;7.05;4.60;;;18.90;80.00;;;;;;5022605;28;20205;-85
2022/07/15 01:17:48;;;;;;;6.93;5.13;;;18.90;81.70;;;;;;5020351;28;20212;-85
2022/07/15 01:20:16;;;;;;;7.88;5.03;;;18.70;84.80;;;;;;5023487;28;20281;-85
2022/07/15 01:22:45;;;;;;;13.07;5.57;;;18.50;90.40;;;;;;5026246;28;20218;-85
2022/07/15 01:25:12;;;;;;;6.43;5.07;;;18.30;91.80;;;;;;5029218;28;20699;-85
2022/07/15 01:27:38;;;;;;;13.50;5.35;;;18.30;92.20;;;;;;5027707;28;20246;-85
2022/07/15 01:30:06;;;;;;;5.78;4.90;;;18.20;92.70;;;;;;5026141;28;20545;-85
2022/07/15 01:32:33;;;;;;;8.27;4.72;;;18.20;92.20;;;;;;5029036;28;20584;-85
2022/07/15 01:35:00;;;;;;;9.70;5.22;;;18.20;92.10;;;;;;5031945;28;20209;-85
2022/07/15 01:37:27;;;;;;;6.35;5.00;;;18.40;92.30;;;;;;5031131;28;20202;-85
2022/07/15 01:39:56;;;;;;;8.60;5.18;;;18.50;93.10;;;;;;5034541;28;20858;-85
2022/07/15 01:42:22;;;;;;;10.02;5.15;;;18.50;92.90;;;;;;5037146;28;20206;-85
2022/07/15 01:44:49;;;;;;;10.00;5.65;;;18.40;93.10;;;;;;5036943;28;20216;-85
2022/07/15 01:47:21;;;;;;;6.82;4.93;;;18.40;94.20;;;;;;5032806;28;20198;-85
2022/07/15 01:49:47;;;;;;;12.07;5.70;;;18.50;93.70;;;;;;5036527;28;20238;-85
2022/07/15 01:52:14;;;;;;;7.72;5.30;;;18.50;94.20;;;;;;5033362;28;20608;-85
2022/07/15 01:54:41;;;;;;;8.07;5.20;;;18.50;94.20;;;;;;5025987;28;20607;-85
2022/07/15 01:57:09;;;;;;;10.23;5.50;;;18.40;94.30;;;;;;5030420;28;20210;-85
2022/07/15 01:59:36;;;;;;;9.75;5.70;;;18.40;94.20;;;;;;5029260;28;20203;-85
2022/07/15 02:02:03;;;;;;;6.53;5.22;;;18.30;95.20;;;;;;5023576;28;20207;-85
2022/07/15 02:04:30;;;;;;;12.93;5.15;;;18.30;94.20;;;;;;5033754;28;20223;-85
2022/07/15 02:06:57;;;;;;;7.72;5.20;;;18.30;93.00;;;;;;5030363;28;20203;-85
2022/07/15 02:09:23;;;;;;;8.93;4.97;;;18.30;92.20;;;;;;5033924;28;20199;-85
2022/07/15 02:12:01;;;;;;;9.73;4.80;;;18.30;91.50;;;;;;5024009;28;20572;-85
2022/07/15 02:14:29;;;;;;;9.50;4.95;;;18.30;91.40;;;;;;5027047;28;20209;-85
2022/07/15 02:16:56;;;;;;;9.60;4.95;;;18.30;91.70;;;;;;5030478;28;20207;-85
2022/07/15 02:19:23;;;;;;;6.45;4.45;;;18.30;91.30;;;;;;5032935;28;20672;-85
2022/07/15 02:21:50;;;;;;;7.80;4.68;;;18.20;90.70;;;;;;5025783;28;20265;-85
2022/07/15 02:24:19;;;;;;;7.40;4.60;;;18.20;90.10;;;;;;5029649;28;20230;-85
2022/07/15 02:26:46;;;;;;;6.97;4.60;;;18.10;89.30;;;;;;5031066;28;20588;-85
2022/07/15 02:29:12;;;;;;;7.30;4.60;;;18.20;90.00;;;;;;5031326;28;20203;-85
2022/07/15 02:31:41;;;;;;;6.03;4.18;;;18.20;90.20;;;;;;5031721;28;20229;-85
2022/07/15 02:34:08;;;;;;;7.40;4.25;;;18.20;90.40;;;;;;5021717;28;20294;-85
2022/07/15 02:36:35;;;;;;;7.22;4.45;;;18.10;88.20;;;;;;5018139;28;20203;-85
2022/07/15 02:39:02;;;;;;;6.90;4.20;;;18.10;86.60;;;;;;5025099;28;20206;-85
2022/07/15 02:41:29;;;;;;;8.27;3.70;;;18.00;79.40;;;;;;5025773;28;20205;-85
2022/07/15 02:43:59;;;;;;;6.45;3.72;;;18.00;80.90;;;;;;5028291;28;20222;-86
2022/07/15 02:46:26;;;;;;;6.05;3.85;;;18.00;79.40;;;;;;5026437;28;20588;-85
2022/07/15 02:48:54;;;;;;;7.30;3.60;;;18.10;80.30;;;;;;5033398;28;20207;-85
2022/07/15 02:51:20;;;;;;;5.28;3.95;;;18.10;79.50;;;;;;5018954;28;20200;-85
2022/07/15 02:53:47;;;;;;;4.68;3.47;;;18.00;79.40;;;;;;5030739;28;20199;-85
2022/07/15 02:56:14;;;;;;;5.72;3.53;;;18.00;81.10;;;;;;5025960;28;20199;-85
2022/07/15 02:58:41;;;;;;;5.82;3.28;;;17.90;79.30;;;;;;5026044;28;20199;-85
2022/07/15 03:01:09;;;;;;;5.18;3.47;;;17.80;76.00;;;;;;5026463;28;20194;-85
2022/07/15 03:03:36;;;;;;;5.72;3.58;;;17.90;78.90;;;;;;5026556;28;20218;-84
2022/07/15 03:06:09;;;;;;;4.93;3.40;;;17.80;79.30;;;;;;5030921;28;20205;-85
2022/07/15 03:08:37;;;;;;;6.55;3.10;;;17.70;74.80;;;;;;5029818;28;20211;-85
2022/07/15 03:11:07;;;;;;;5.82;3.22;;;17.70;74.60;;;;;;5028608;28;20198;-85
2022/07/15 03:13:34;;;;;;;9.90;3.22;;;17.70;75.80;;;;;;5033812;28;20195;-85
2022/07/15 03:16:00;;;;;;;7.93;3.00;;;17.70;73.00;;;;;;5035553;28;20198;-85
2022/07/15 03:18:27;;;;;;;6.38;3.30;;;17.60;74.30;;;;;;5034761;28;20202;-85
2022/07/15 03:20:54;;;;;;;8.18;3.70;;;17.60;75.00;;;;;;5026810;28;20211;-85
2022/07/15 03:23:22;;;;;;;11.52;3.60;;;17.60;75.50;;;;;;5034778;28;20214;-85
2022/07/15 03:25:55;;;;;;;8.98;3.17;;;17.50;75.50;;;;;;5025748;28;20204;-85
2022/07/15 03:28:25;;;;;;;6.35;2.95;;;17.60;75.00;;;;;;5029457;28;20194;-85
2022/07/15 03:30:55;;;;;;;5.75;3.10;;;17.50;75.00;;;;;;5023973;28;20207;-85
2022/07/15 03:33:25;;;;;;;5.18;3.00;;;17.50;75.00;;;;;;5028378;28;20236;-85
2022/07/15 03:35:52;;;;;;;7.78;3.35;;;17.50;75.80;;;;;;5030603;28;20199;-85
2022/07/15 03:38:19;;;;;;;6.20;3.00;;;17.50;73.10;;;;;;5024893;28;20203;-85
2022/07/15 03:40:47;;;;;;;5.93;3.20;;;17.30;73.20;;;;;;5031659;28;20202;-85
2022/07/15 03:43:19;;;;;;;7.47;3.20;;;17.20;73.50;;;;;;5028864;28;20211;-85
2022/07/15 03:45:49;;;;;;;7.57;3.00;;;17.10;73.50;;;;;;5025002;28;20201;-85
2022/07/15 03:48:16;;;;;;;7.50;3.08;;;17.10;74.60;;;;;;5033454;28;20210;-85
2022/07/15 03:50:43;;;;;;;6.88;3.50;;;17.10;75.70;;;;;;5034254;28;20207;-85
2022/07/15 03:53:10;;;;;;;6.68;2.90;;;17.00;74.70;;;;;;5032213;28;20210;-85
2022/07/15 03:55:37;;;;;;;6.40;3.00;;;17.10;73.20;;;;;;5040719;28;20194;-85
2022/07/15 03:58:06;;;;;;;8.02;3.30;;;17.20;73.60;;;;;;5033646;28;20214;-84
2022/07/15 04:00:37;;;;;;;8.70;3.50;;;17.10;72.50;;;;;;5027769;28;20214;-85
2022/07/15 04:03:07;;;;;;;8.32;3.45;;;17.20;72.10;;;;;;5031286;28;20207;-85
2022/07/15 04:05:34;;;;;;;5.47;3.22;;;17.30;73.10;;;;;;5027816;28;20199;-85
2022/07/15 04:08:00;;;;;;;8.63;3.28;;;17.40;70.30;;;;;;5027702;28;20210;-85
2022/07/15 04:10:27;;;;;;;8.77;3.17;;;17.40;72.00;;;;;;5029820;28;20198;-84
2022/07/15 04:12:55;;;;;;;8.63;2.95;;;17.50;69.10;;;;;;5030438;28;20203;-85
2022/07/15 04:15:23;;;;;;;11.20;2.97;;;17.40;69.20;;;;;;5026537;28;20198;-85
2022/07/15 04:17:50;;;;;;;8.90;3.17;;;17.40;68.90;;;;;;5022458;28;20199;-85
2022/07/15 04:20:17;;;;;;;5.45;2.78;;;17.40;68.60;;;;;;5025012;28;20210;-85
2022/07/15 04:22:46;;;;;;;6.72;3.00;;;17.40;67.00;;;;;;5031049;28;20589;-85
2022/07/15 04:25:17;;;;;;;4.10;2.70;;;17.50;64.40;;;;;;5030765;28;20250;-85
2022/07/15 04:27:49;;;;;;;6.97;3.17;;;17.60;65.60;;;;;;5024943;28;20190;-85
2022/07/15 04:30:16;;;;;;;10.30;3.45;;;17.80;63.80;;;;;;5028726;28;20575;-85
2022/07/15 04:32:44;;;;;;;7.38;3.05;;;17.70;63.80;;;;;;5029700;28;20230;-85
2022/07/15 04:35:11;;;;;;;12.40;3.65;;;17.60;63.30;;;;;;5025306;28;20575;-85
2022/07/15 04:37:38;;;;;;;5.63;3.00;;;17.80;63.80;;;;;;5027197;28;20200;-85
2022/07/15 04:40:06;;;;;;;7.30;3.20;;;17.90;60.10;;;;;;5025417;28;20525;-85
2022/07/15 04:42:33;;;;;;;5.88;3.00;;;17.80;59.20;;;;;;5028337;28;20988;-85
2022/07/15 04:45:00;;;;;;;6.18;2.88;;;17.70;59.60;;;;;;5032236;28;20237;-85
2022/07/15 04:47:27;;;;;;;7.57;2.95;;;17.80;63.00;;;;;;5027001;28;20194;-85
2022/07/15 04:52:44;;;;;;;5.20;2.90;;;17.80;61.40;;;;;;5024888;28;20781;-85
2022/07/15 04:55:11;;;;;;;10.40;3.20;;;17.90;62.10;;;;;;5025701;28;20288;-85
2022/07/15 04:57:38;;;;;;;8.77;2.97;;;18.00;60.90;;;;;;5019740;28;20650;-85
2022/07/15 05:00:06;;;;;;;4.30;2.88;;;18.00;58.40;;;;;;5030923;28;20205;-86
2022/07/15 05:02:33;;;;;;;6.07;2.95;;;17.90;61.80;;;;;;5029226;28;20209;-85
2022/07/15 05:05:01;;;;;;;6.25;3.28;;;18.00;62.00;;;;;;5025525;28;20210;-85
2022/07/15 05:07:28;;;;;;;7.90;3.17;;;17.90;60.90;;;;;;5034963;28;20264;-85
2022/07/15 05:09:55;;;;;;;7.72;3.10;;;17.80;62.30;;;;;;5036051;28;20202;-85
2022/07/15 05:12:25;;;;;;;6.10;3.25;;;17.90;58.70;;;;;;5033954;28;20637;-85
2022/07/15 05:14:52;;;;;;;5.57;2.65;;;17.90;60.60;;;;;;5037756;28;20202;-85
2022/07/15 05:17:18;;;;;;;6.60;3.22;;;18.00;58.50;;;;;;5028021;28;20190;-86
2022/07/15 05:19:45;;;;;;;4.35;2.80;;;18.20;55.90;;;;;;5028770;28;20298;-85
2022/07/15 05:22:16;;;;;;;7.75;3.05;;;18.40;56.10;;;;;;5028572;28;20206;-86
2022/07/15 05:24:44;;;;;;;5.90;3.08;;;18.40;56.90;;;;;;5028578;28;20225;-84
2022/07/15 05:27:10;;;;;;;5.63;2.70;;;18.30;57.30;;;;;;5027376;28;20226;-86
2022/07/15 05:29:37;;;;;;;5.53;3.20;;;18.50;56.10;;;;;;5034455;28;20198;-86
2022/07/15 05:32:05;;;;;;;7.25;3.10;;;18.60;54.70;;;;;;5031862;28;20214;-84
2022/07/15 05:34:32;;;;;;;10.63;2.88;;;18.60;52.80;;;;;;5035721;28;20202;-84
2022/07/15 05:36:58;;;;;;;6.88;3.40;;;18.50;54.60;;;;;;5029883;28;20202;-85
2022/07/15 05:39:27;;;;;;;6.90;3.20;;;18.50;54.60;;;;;;5028922;28;20204;-85
2022/07/15 05:41:54;;;;;;;6.25;3.17;;;18.50;54.60;;;;;;5024503;28;20521;-85
2022/07/15 05:44:21;;;;;;;9.43;2.80;;;18.60;56.40;;;;;;5032963;28;20230;-85
2022/07/15 05:46:47;;;;;;;5.47;2.83;;;18.70;54.80;;;;;;5028144;28;20662;-83
2022/07/15 05:49:14;;;;;;;8.15;3.05;;;18.90;54.90;;;;;;5036946;28;20206;-83
2022/07/15 05:51:41;;;;;;;3.97;2.45;;;19.20;50.70;;;;;;5034491;28;20205;-83
2022/07/15 05:54:08;;;;;;;8.70;3.40;;;19.30;49.30;;;;;;5032760;28;20729;-82
2022/07/15 05:56:36;;;;;;;5.15;3.10;;;19.20;50.70;;;;;;5034890;28;20201;-84
2022/07/15 05:59:03;;;;;;;5.90;3.00;;;19.10;51.00;;;;;;5035646;28;20252;-84
2022/07/15 06:01:30;;;;;;;8.88;3.30;;;19.10;50.50;;;;;;5034556;28;20290;-84
2022/07/15 06:03:57;;;;;;;7.15;3.33;;;19.10;51.10;;;;;;5042909;28;20199;-84
2022/07/15 06:06:31;;;;;;;6.75;2.58;;;19.00;53.20;;;;;;5037307;28;20199;-84
2022/07/15 06:09:01;;;;;;;6.72;2.97;;;19.00;52.70;;;;;;5041627;28;20206;-84
2022/07/15 06:11:28;;;;;;;5.95;2.80;;;19.00;48.50;;;;;;5037453;28;20194;-84
2022/07/15 06:13:56;;;;;;;7.00;2.80;;;19.00;49.30;;;;;;5039825;28;20204;-84
2022/07/15 06:16:23;;;;;;;6.75;2.88;;;18.90;48.90;;;;;;5043527;28;20201;-84
2022/07/15 06:18:55;;;;;;;4.65;2.60;;;19.10;46.80;;;;;;5037074;28;20205;-84
2022/07/15 06:21:31;;;;;;;6.15;2.33;;;19.10;46.90;;;;;;5034518;28;20199;-84
2022/07/15 06:24:07;;;;;;;7.20;2.80;;;19.20;43.40;;;;;;5032538;28;20642;-84
2022/07/15 06:26:34;;;;;;;4.88;2.55;;;19.10;44.90;;;;;;5038189;28;20194;-84
2022/07/15 06:29:02;;;;;;;8.52;2.67;;;19.10;43.40;;;;;;5035348;28;20584;-84
2022/07/15 06:31:29;;;;;;;4.25;2.53;;;19.40;43.30;;;;;;5027699;28;20209;-84
2022/07/15 06:33:58;;;;;;;7.72;2.67;;;19.60;41.50;;;;;;5028996;28;20241;-84
2022/07/15 06:36:25;;;;;;;6.95;2.70;;;19.80;41.40;;;;;;5032771;28;20217;-83
2022/07/15 06:38:55;;;;;;;6.38;2.72;;;19.80;40.60;;;;;;5032033;28;20198;-84
2022/07/15 06:41:22;;;;;;;5.10;2.45;;;19.70;43.30;;;;;;5035236;28;20218;-84
2022/07/15 06:43:55;;;;;;;6.65;2.60;;;19.90;43.60;;;;;;5028234;28;20680;-84
2022/07/15 06:46:23;;;;;;;6.90;2.55;;;20.10;37.10;;;;;;5024916;28;20215;-84
2022/07/15 06:48:50;;;;;;;5.68;2.70;;;20.10;35.40;;;;;;5020848;28;20218;-84
2022/07/15 06:51:17;;;;;;;4.53;2.47;;;20.10;34.30;;;;;;5020537;28;20214;-84
2022/07/15 06:53:44;;;;;;;3.70;2.25;;;20.20;34.30;;;;;;5028418;28;20210;-84
2022/07/15 06:56:25;;;;;;;7.20;2.75;;;20.10;35.80;;;;;;5025927;28;20206;-84
2022/07/15 06:58:52;;;;;;;6.47;2.40;;;20.10;36.20;;;;;;5022650;28;20557;-84
2022/07/15 07:01:19;;;;;;;6.82;2.30;;;20.00;35.40;;;;;;5024136;28;20196;-84
2022/07/15 07:03:47;;;;;;;4.80;2.08;;;20.10;37.70;;;;;;5035192;28;20205;-84
2022/07/15 07:06:14;;;;;;;6.68;2.65;;;20.40;32.40;;;;;;5030860;28;20225;-85
2022/07/15 07:08:41;;;;;;;4.38;2.50;;;20.40;32.40;;;;;;5034990;28;20209;-83
2022/07/15 07:11:08;;;;;;;4.28;2.20;;;20.20;32.20;;;;;;5029272;28;20282;-84
2022/07/15 07:13:50;;;;;;;5.60;2.33;;;20.40;32.40;;;;;;5029976;28;20194;-84
2022/07/15 07:16:17;;;;;;;6.20;2.50;;;20.40;32.40;;;;;;5029482;28;20290;-83
2022/07/15 07:18:45;;;;;;;6.40;2.60;;;20.20;32.20;;;;;;5029787;28;20654;-84
2022/07/15 07:21:14;;;;;;;10.65;2.78;;;20.30;32.30;;;;;;5023950;28;20261;-83
2022/07/15 07:23:43;;;;;;;4.38;2.60;;;20.30;38.10;;;;;;5034679;28;20211;-83
2022/07/15 07:26:28;;;;;;;4.30;2.13;;;20.20;34.50;;;;;;5028236;28;20214;-85
2022/07/15 07:28:55;;;;;;;5.38;2.28;;;20.30;30.90;;;;;;5031676;28;20208;-83
2022/07/15 07:31:26;;;;;;;9.18;2.35;;;20.50;29.30;;;;;;5025447;28;20220;-83
2022/07/15 07:33:54;;;;;;;5.35;2.10;;;20.60;28.30;;;;;;5036792;28;20260;-83
2022/07/15 07:36:27;;;;;;;5.90;2.13;;;20.70;28.80;;;;;;5033630;28;20214;-83
2022/07/15 07:38:54;;;;;;;5.63;2.10;;;20.80;31.20;;;;;;5036541;28;20187;-83
2022/07/15 07:41:25;;;;;;;8.50;2.55;;;20.80;29.40;;;;;;5035960;28;20202;-83
2022/07/15 07:43:55;;;;;;;4.90;2.13;;;20.90;27.40;;;;;;5047875;28;20211;-83
2022/07/15 07:46:22;;;;;;;6.75;2.13;;;20.90;26.70;;;;;;5050683;28;20211;-84
2022/07/15 07:48:49;;;;;;;6.03;2.42;;;21.10;27.10;;;;;;5052458;28;20203;-84
2022/07/15 07:51:18;;;;;;;6.18;2.17;;;21.10;24.80;;;;;;5035138;28;20584;-84
2022/07/15 07:53:51;;;;;;;9.73;2.58;;;21.10;26.10;;;;;;5025895;28;20205;-84
2022/07/15 07:56:31;;;;;;;7.43;2.40;;;21.10;26.70;;;;;;5028170;28;20198;-85
2022/07/15 07:58:58;;;;;;;5.60;2.33;;;21.20;26.10;;;;;;5022023;28;20198;-84
2022/07/15 08:01:25;;;;;;;4.50;2.00;;;21.10;28.00;;;;;;5029202;28;20194;-84
2022/07/15 08:03:52;;;;;;;3.15;2.35;;;21.10;27.00;;;;;;5026783;28;20234;-86
2022/07/15 08:06:19;;;;;;;9.93;2.40;;;21.30;25.70;;;;;;5025619;28;20222;-84
2022/07/15 08:08:51;;;;;;;7.25;2.40;;;21.10;26.30;;;;;;5029469;28;20214;-85
2022/07/15 08:11:25;;;;;;;5.28;2.38;;;21.10;27.50;;;;;;5023797;28;20217;-83
2022/07/15 08:13:53;;;;;;;6.78;2.50;;;21.30;26.30;;;;;;5029683;28;20220;-83
2022/07/15 08:16:21;;;;;;;5.05;2.20;;;21.30;28.50;;;;;;5031810;28;20229;-83
2022/07/15 08:18:47;;;;;;;6.53;2.20;;;21.20;26.50;;;;;;5029595;28;20195;-83
2022/07/15 08:21:14;;;;;;;3.50;2.05;;;21.40;25.70;;;;;;5036387;28;20206;-83
2022/07/15 08:23:50;;;;;;;6.03;2.28;;;21.40;26.10;;;;;;5026287;28;20617;-83
2022/07/15 08:26:22;;;;;;;5.32;2.15;;;21.40;25.70;;;;;;5031046;28;20221;-83
2022/07/15 08:28:49;;;;;;;8.38;2.50;;;21.60;25.00;;;;;;5031289;28;20706;-82
2022/07/15 08:31:17;;;;;;;8.93;2.67;;;22.40;24.70;;;;;;5029113;28;20199;-82
2022/07/15 08:33:43;;;;;;;5.13;2.50;;;24.00;18.90;;;;;;5029351;28;20206;-82
2022/07/15 08:36:11;;;;;;;4.93;2.20;;;25.70;15.60;;;;;;5019860;28;20198;-82
2022/07/15 08:38:43;;;;;;;4.18;2.38;;;27.30;14.40;;;;;;5026309;28;20592;-82
2022/07/15 08:41:11;;;;;;;7.00;2.28;;;28.00;12.00;;;;;;5036054;28;20685;-81
2022/07/15 08:43:38;;;;;;;5.15;2.50;;;27.70;14.20;;;;;;5040172;28;20287;-81
2022/07/15 08:46:08;;;;;;;6.20;2.83;;;27.30;12.80;;;;;;5047548;28;20217;-82
2022/07/15 08:48:37;;;;;;;8.25;2.60;;;26.40;14.80;;;;;;5030770;28;20205;-82
2022/07/15 08:51:07;;;;;;;7.45;2.42;;;25.70;15.70;;;;;;5019850;28;20190;-81
2022/07/15 08:53:34;;;;;;;5.05;2.35;;;25.70;15.70;;;;;;5017494;28;20199;-82
2022/07/15 08:56:02;;;;;;;10.32;2.85;;;26.70;15.00;;;;;;5020929;28;20194;-82
2022/07/15 08:58:30;;;;;;;6.68;2.50;;;28.70;11.40;;;;;;5019811;28;20190;-82
2022/07/15 09:00:57;;;;;;;4.95;3.00;;;29.30;11.40;;;;;;5025584;28;20210;-82
2022/07/15 09:03:24;;;;;;;8.85;3.20;;;30.50;8.20;;;;;;5023418;28;20190;-82
2022/07/15 09:05:51;;;;;;;4.80;2.90;;;30.50;8.60;;;;;;5021925;28;20225;-82
2022/07/15 09:08:19;;;;;;;5.63;3.40;;;30.90;8.00;;;;;;5020071;28;20259;-86
2022/07/15 09:10:51;;;;;;;5.78;3.28;;;30.90;7.50;;;;;;5022795;28;20551;-85
2022/07/15 09:13:27;;;;;;;7.00;3.67;;;30.50;7.30;;;;;;5018987;28;20194;-85
2022/07/15 09:15:56;;;;;;;5.95;3.30;;;30.90;7.50;;;;;;5025628;28;20699;-85
2022/07/15 09:18:43;;;;;;;5.53;3.30;;;32.30;6.10;;;;;;5024739;28;20205;-85
2022/07/15 09:21:16;;;;;;;7.65;3.38;;;32.80;4.90;;;;;;5019859;28;20222;-85
2022/07/15 09:23:43;;;;;;;4.85;3.72;;;32.30;5.80;;;;;;5025631;28;20198;-85
2022/07/15 09:26:36;;;;;;;5.50;3.38;;;31.80;6.60;;;;;;5026601;28;20229;-85
2022/07/15 09:33:33;;;;;;;4.35;3.35;;;31.90;5.70;;;;;;5011164;28;20198;-85
2022/07/15 09:35:01;;;;;;;5.82;3.97;;;32.50;5.90;;;;;;5022188;28;20401;-85
2022/07/15 09:37:28;;;;;;;5.85;3.80;;;32.50;5.60;;;;;;5016074;28;20202;-85
2022/07/15 09:39:56;;;;;;;4.35;3.78;;;31.70;6.80;;;;;;5026136;28;20202;-86
2022/07/15 09:42:24;;;;;;;6.97;4.40;;;31.50;7.60;;;;;;5020026;28;20211;-85
2022/07/15 09:44:51;;;;;;;8.38;4.07;;;31.60;7.80;;;;;;5025829;28;20728;-85
2022/07/15 09:47:22;;;;;;;6.28;4.05;;;31.00;8.40;;;;;;5027243;28;20653;-85
2022/07/15 09:49:49;;;;;;;5.35;3.40;;;31.00;7.50;;;;;;5021752;28;20202;-85
2022/07/15 09:52:16;;;;;;;5.00;4.00;;;31.30;8.00;;;;;;5023172;28;20213;-85
2022/07/15 09:54:45;;;;;;;5.32;4.03;;;32.00;5.80;;;;;;5024697;28;20195;-85
2022/07/15 09:57:15;;;;;;;5.28;4.20;;;32.10;7.50;;;;;;5025000;28;20289;-85
2022/07/15 09:59:42;;;;;;;7.32;4.53;;;32.20;6.90;;;;;;5030654;28;20202;-85
2022/07/15 10:02:09;;;;;;;6.47;4.15;;;32.80;6.70;;;;;;5029168;28;20195;-85
2022/07/15 10:04:39;;;;;;;6.35;4.50;;;32.80;5.70;;;;;;5025596;28;20194;-85
2022/07/15 10:07:06;;;;;;;6.30;4.65;;;33.00;5.10;;;;;;5031609;28;20217;-85
2022/07/15 10:09:39;;;;;;;5.63;4.75;;;32.70;6.60;;;;;;5033715;28;20289;-85
2022/07/15 10:12:11;;;;;;;6.55;4.97;;;33.90;4.00;;;;;;5029810;28;20624;-86
2022/07/15 10:15:04;;;;;;;7.20;4.90;;;33.00;5.30;;;;;;5029116;28;20202;-86
2022/07/15 10:17:52;;;;;;;9.77;4.47;;;31.30;7.30;;;;;;4971642;28;20623;-86
2022/07/15 10:20:40;;;;;;;6.47;4.63;;;31.00;9.80;;;;;;4970243;28;20292;-86
2022/07/15 10:23:40;;;;;;;7.97;4.60;;;30.50;7.60;;;;;;4966361;28;20252;-86
2022/07/15 10:26:26;;;;;;;5.30;3.97;;;31.70;5.90;;;;;;4969725;28;20603;-85
2022/07/15 10:28:58;;;;;;;6.13;4.28;;;31.70;7.80;;;;;;4966760;28;20246;-86
2022/07/15 10:31:26;;;;;;;5.80;4.45;;;31.50;7.70;;;;;;4964748;28;20211;-86
2022/07/15 10:34:21;;;;;;;5.35;4.40;;;30.60;9.90;;;;;;4963430;28;20239;-87
2022/07/15 10:37:01;;;;;;;7.30;4.30;;;30.50;9.20;;;;;;4955701;28;20211;-84
2022/07/15 10:39:29;;;;;;;7.07;3.95;;;31.10;6.80;;;;;;4974035;28;20211;-82
2022/07/15 10:42:03;;;;;;;5.95;3.80;;;31.10;6.30;;;;;;4974095;28;20215;-82
2022/07/15 10:44:32;;;;;;;7.15;4.15;;;31.50;7.20;;;;;;4974875;28;20580;-81
2022/07/15 10:47:19;;;;;;;9.82;4.25;;;30.80;7.40;;;;;;4967419;28;20231;-83
2022/07/15 10:49:55;;;;;;;9.52;3.95;;;31.20;6.40;;;;;;4965629;28;20196;-82
2022/07/15 10:52:24;;;;;;;6.78;3.60;;;30.70;9.40;;;;;;4970881;28;20621;-82
2022/07/15 10:55:03;;;;;;;5.32;3.50;;;30.20;10.60;;;;;;5007093;28;20210;-89
2022/07/15 10:58:03;;;;;;;11.43;3.58;;;30.00;10.10;;;;;;5023145;28;20198;-84
2022/07/15 11:00:34;;;;;;;6.50;4.03;;;31.30;11.40;;;;;;5028292;28;20194;-83
2022/07/15 11:03:07;;;;;;;4.78;3.42;;;31.60;5.60;;;;;;5036709;28;20256;-83
2022/07/15 11:05:35;;;;;;;5.72;3.92;;;32.40;5.90;;;;;;5029363;28;20213;-85
2022/07/15 11:08:40;;;;;;;7.75;3.60;;;32.10;4.70;;;;;;5032818;28;20297;-84
2022/07/15 11:11:40;;;;;;;9.35;3.83;;;31.40;6.80;;;;;;5024313;28;20198;-84
2022/07/15 11:14:42;;;;;;;5.35;3.40;;;29.90;8.80;;;;;;5028116;28;20207;-84
2022/07/15 11:17:09;;;;;;;4.60;3.40;;;28.60;10.80;;;;;;5026060;28;20706;-83
2022/07/15 11:19:36;;;;;;;7.47;3.83;;;28.30;11.60;;;;;;5028048;28;20194;-81
2022/07/15 11:22:09;;;;;;;9.82;3.85;;;28.30;12.40;;;;;;5029895;28;20550;-82
2022/07/15 11:24:39;;;;;;;9.27;3.55;;;28.20;10.10;;;;;;5026241;28;20198;-83
2022/07/15 11:27:05;;;;;;;6.90;2.90;;;27.80;12.30;;;;;;5029537;28;20221;-83
2022/07/15 11:29:43;;;;;;;5.03;3.03;;;28.00;11.80;;;;;;5033600;28;20585;-82
2022/07/15 11:32:10;;;;;;;7.00;3.03;;;28.00;11.20;;;;;;5023515;28;20211;-80
2022/07/15 11:34:40;;;;;;;6.55;3.05;;;28.00;10.70;;;;;;5023260;28;20198;-81
2022/07/15 11:37:07;;;;;;;5.90;3.15;;;27.90;10.90;;;;;;5026067;28;20202;-82
2022/07/15 11:39:39;;;;;;;4.90;2.90;;;27.50;12.40;;;;;;5021803;28;20664;-82
2022/07/15 11:45:00;;;;;;;7.03;3.08;;;27.20;12.10;;;;;;4965511;28;20742;-82
2022/07/15 11:47:27;;;;;;;6.00;3.40;;;27.30;10.40;;;;;;4963377;28;20228;-81
2022/07/15 11:50:00;;;;;;;6.43;3.13;;;27.10;12.90;;;;;;4963808;28;20208;-81
2022/07/15 11:52:27;;;;;;;6.47;3.22;;;27.20;11.70;;;;;;4963366;28;20208;-81
2022/07/15 11:54:56;;;;;;;5.07;3.00;;;27.10;11.00;;;;;;4964365;28;20761;-81
2022/07/15 11:57:23;;;;;;;3.80;2.97;;;27.20;11.30;;;;;;4970671;28;20208;-81
2022/07/15 11:59:54;;;;;;;7.22;3.30;;;27.50;12.00;;;;;;4974556;28;20215;-81
2022/07/15 12:02:25;;;;;;;8.02;3.40;;;27.40;10.40;;;;;;4977426;28;20204;-81
2022/07/15 12:04:53;;;;;;;7.90;3.35;;;27.30;11.90;;;;;;4979465;28;20239;-81
2022/07/15 12:07:20;;;;;;;3.90;2.85;;;27.10;11.60;;;;;;4961719;28;20221;-81
2022/07/15 12:09:49;;;;;;;4.70;3.20;;;27.30;12.90;;;;;;4959630;28;20216;-83
2022/07/15 12:12:17;;;;;;;5.30;3.17;;;27.50;12.50;;;;;;4960436;28;20631;-84
2022/07/15 12:14:50;;;;;;;5.38;2.65;;;27.60;13.00;;;;;;4962985;28;20217;-83
2022/07/15 12:17:18;;;;;;;6.90;3.13;;;27.60;12.90;;;;;;4964750;28;20211;-82
2022/07/15 12:19:51;;;;;;;10.23;3.08;;;27.50;12.50;;;;;;4970842;28;20215;-83
2022/07/15 12:22:18;;;;;;;5.40;2.60;;;27.60;12.40;;;;;;4999586;28;20198;-83
2022/07/15 12:24:50;;;;;;;7.28;2.92;;;27.60;12.10;;;;;;5028877;28;20850;-83
2022/07/15 12:27:19;;;;;;;7.50;3.05;;;27.20;10.90;;;;;;5023687;28;20268;-83
2022/07/15 12:29:47;;;;;;;4.47;2.80;;;27.00;13.30;;;;;;5027697;28;20560;-83
2022/07/15 12:32:15;;;;;;;6.82;3.20;;;27.10;12.70;;;;;;5020673;28;20305;-81
2022/07/15 12:34:52;;;;;;;3.95;2.80;;;26.80;13.50;;;;;;5027783;28;20565;-83
2022/07/15 12:37:22;;;;;;;5.10;3.10;;;26.90;13.90;;;;;;5021656;28;20201;-83
2022/07/15 12:40:00;;;;;;;5.28;3.30;;;26.90;13.70;;;;;;5027216;28;20210;-83
2022/07/15 12:42:31;;;;;;;7.53;3.00;;;26.60;12.90;;;;;;5020553;28;20202;-81
2022/07/15 12:45:12;;;;;;;7.63;3.92;;;26.50;13.50;;;;;;5025862;28;20215;-79
2022/07/15 12:47:58;;;;;;;9.93;3.22;;;26.70;11.70;;;;;;5019473;28;20214;-79
2022/07/15 12:50:33;;;;;;;4.60;3.08;;;26.40;12.40;;;;;;5018310;28;20653;-78
2022/07/15 12:53:01;;;;;;;6.20;2.95;;;26.00;14.70;;;;;;5018100;28;20345;-79
2022/07/15 12:55:30;;;;;;;5.28;2.90;;;25.70;14.50;;;;;;5018210;28;20290;-79
2022/07/15 12:58:07;;;;;;;3.97;2.95;;;26.00;14.60;;;;;;5016637;28;20297;-80
2022/07/15 13:00:34;;;;;;;5.13;2.88;;;26.40;12.90;;;;;;5021349;28;20206;-80
2022/07/15 13:03:06;;;;;;;5.43;2.80;;;26.60;13.00;;;;;;5020041;28;20199;-79
2022/07/15 13:05:34;;;;;;;4.43;3.13;;;26.50;14.90;;;;;;5020502;28;20229;-80
2022/07/15 13:08:02;;;;;;;4.22;2.80;;;26.50;14.10;;;;;;5018476;28;20227;-80
2022/07/15 13:10:30;;;;;;;11.48;3.13;;;26.60;14.40;;;;;;5023246;28;20412;-81